Time,TemperatureF,DewpointF,PressureIn,WindDirection,WindDirectionDegrees,WindSpeedMPH,WindSpeedGustMPH,Humidity,HourlyPrecipIn,Conditions,Clouds,dailyrainin,SoftwareType,DateUTC
2013-08-14 00:03:00,82.4,50.4,29.86,NNW,338,0.0,0.0,33,0.00,,,0.00,VWS V14.01,2013-08-13 21:03:00,
2013-08-14 00:08:00,82.4,50.4,29.86,North,0,0.0,4.0,33,0.00,,,0.00,VWS V14.01,2013-08-13 21:08:00,
2013-08-14 00:13:00,82.4,51.2,29.86,North,0,0.0,0.0,34,0.00,,,0.00,VWS V14.01,2013-08-13 21:13:00,
2013-08-14 00:18:00,82.0,50.9,29.86,North,0,1.1,1.1,34,0.00,,,0.00,VWS V14.01,2013-08-13 21:18:00,
2013-08-14 00:23:00,81.9,50.8,29.86,NW,315,4.9,4.9,34,0.00,,,0.00,VWS V14.01,2013-08-13 21:23:00,
2013-08-14 00:28:00,82.0,50.9,29.86,NW,315,3.3,3.3,34,0.00,,,0.00,VWS V14.01,2013-08-13 21:28:00,
2013-08-14 00:33:00,82.0,50.9,29.86,NW,315,5.5,5.5,34,0.00,,,0.00,VWS V14.01,2013-08-13 21:33:00,
2013-08-14 00:38:00,81.9,51.5,29.86,NW,315,5.8,5.8,35,0.00,,,0.00,VWS V14.01,2013-08-13 21:38:00,
2013-08-14 00:43:00,81.9,51.5,29.86,NNW,338,2.9,2.9,35,0.00,,,0.00,VWS V14.01,2013-08-13 21:43:00,
2013-08-14 00:48:00,81.7,51.4,29.86,NNW,338,4.2,4.9,35,0.00,,,0.00,VWS V14.01,2013-08-13 21:48:00,
2013-08-14 00:53:00,81.7,51.4,29.86,NNW,338,4.0,4.0,35,0.00,,,0.00,VWS V14.01,2013-08-13 21:53:00,
2013-08-14 00:58:00,81.7,51.4,29.86,NW,315,4.6,5.1,35,0.00,,,0.00,VWS V14.01,2013-08-13 21:58:00,
2013-08-14 01:03:00,81.7,52.1,29.86,NNW,338,5.8,5.8,36,0.00,,,0.00,VWS V14.01,2013-08-13 22:03:00,
2013-08-14 01:08:00,81.7,52.1,29.86,WNW,292,2.0,4.2,36,0.00,,,0.00,VWS V14.01,2013-08-13 22:08:00,
2013-08-14 01:13:00,81.7,52.1,29.86,NW,315,4.4,5.8,36,0.00,,,0.00,VWS V14.01,2013-08-13 22:13:00,
2013-08-14 01:18:00,81.7,52.1,29.86,NW,315,4.9,4.9,36,0.00,,,0.00,VWS V14.01,2013-08-13 22:18:00,
2013-08-14 01:23:00,81.7,52.1,29.86,NNW,338,3.5,3.5,36,0.00,,,0.00,VWS V14.01,2013-08-13 22:23:00,
2013-08-14 01:28:00,81.5,52.0,29.86,NNW,338,3.5,3.5,36,0.00,,,0.00,VWS V14.01,2013-08-13 22:28:00,
2013-08-14 01:34:00,81.5,52.0,29.86,North,0,3.3,6.0,36,0.00,,,0.00,VWS V14.01,2013-08-13 22:34:00,
2013-08-14 01:39:00,81.3,51.8,29.86,NNW,338,1.1,1.1,36,0.00,,,0.00,VWS V14.01,2013-08-13 22:39:00,
2013-08-14 01:44:00,81.3,51.8,29.86,NW,315,5.1,5.1,36,0.00,,,0.00,VWS V14.01,2013-08-13 22:44:00,
2013-08-14 01:49:00,81.3,51.8,29.86,NW,315,4.4,4.4,36,0.00,,,0.00,VWS V14.01,2013-08-13 22:49:00,
2013-08-14 01:54:00,81.3,51.8,29.86,NNW,338,0.0,0.0,36,0.00,,,0.00,VWS V14.01,2013-08-13 22:54:00,
2013-08-14 01:59:00,81.1,51.6,29.86,WNW,292,2.9,2.9,36,0.00,,,0.00,VWS V14.01,2013-08-13 22:59:00,
2013-08-14 02:04:00,81.1,51.6,29.86,NNW,338,3.5,3.5,36,0.00,,,0.00,VWS V14.01,2013-08-13 23:04:00,
2013-08-14 02:09:00,81.1,51.6,29.86,NW,315,2.2,2.2,36,0.00,,,0.00,VWS V14.01,2013-08-13 23:09:00,
2013-08-14 02:14:00,80.8,52.1,29.86,NW,315,0.0,4.0,37,0.00,,,0.00,VWS V14.01,2013-08-13 23:14:00,
2013-08-14 02:19:00,80.4,51.7,29.85,NW,315,0.0,0.0,37,0.00,,,0.00,VWS V14.01,2013-08-13 23:19:00,
2013-08-14 02:24:00,80.1,51.5,29.85,NW,315,0.8,0.8,37,0.00,,,0.00,VWS V14.01,2013-08-13 23:24:00,
2013-08-14 02:29:00,79.9,52.0,29.85,NNW,338,0.0,0.0,38,0.00,,,0.00,VWS V14.01,2013-08-13 23:29:00,
2013-08-14 02:34:00,79.9,52.7,29.85,NNW,338,4.0,4.0,39,0.00,,,0.00,VWS V14.01,2013-08-13 23:34:00,
2013-08-14 02:39:00,80.2,52.3,29.85,NW,315,4.6,4.6,38,0.00,,,0.00,VWS V14.01,2013-08-13 23:39:00,
2013-08-14 02:44:00,80.2,53.0,29.85,NW,315,3.8,3.8,39,0.00,,,0.00,VWS V14.01,2013-08-13 23:44:00,
2013-08-14 02:50:00,80.2,53.0,29.85,NNW,338,3.3,3.3,39,0.00,,,0.00,VWS V14.01,2013-08-13 23:50:00,
2013-08-14 02:55:00,80.2,53.0,29.85,NW,315,2.6,2.6,39,0.00,,,0.00,VWS V14.01,2013-08-13 23:55:00,
2013-08-14 03:00:00,80.2,53.0,29.85,NW,315,4.6,4.6,39,0.00,,,0.00,VWS V14.01,2013-08-14 00:00:00,
2013-08-14 03:05:00,80.2,53.0,29.85,NW,315,4.6,4.6,39,0.00,,,0.00,VWS V14.01,2013-08-14 00:05:00,
2013-08-14 03:10:00,80.2,53.7,29.85,NW,315,2.0,2.0,40,0.00,,,0.00,VWS V14.01,2013-08-14 00:10:00,
2013-08-14 03:15:00,80.2,53.7,29.84,NW,315,5.3,7.3,40,0.00,,,0.00,VWS V14.01,2013-08-14 00:15:00,
2013-08-14 03:20:00,80.6,54.0,29.84,NNW,338,4.6,4.6,40,0.00,,,0.00,VWS V14.01,2013-08-14 00:20:00,
2013-08-14 03:25:00,80.4,53.9,29.84,NW,315,0.0,0.0,40,0.00,,,0.00,VWS V14.01,2013-08-14 00:25:00,
2013-08-14 03:30:00,80.2,53.7,29.84,NNW,338,5.8,5.8,40,0.00,,,0.00,VWS V14.01,2013-08-14 00:30:00,
2013-08-14 03:35:00,80.2,53.7,29.84,NW,315,4.9,7.6,40,0.00,,,0.00,VWS V14.01,2013-08-14 00:35:00,
2013-08-14 03:40:00,80.2,54.3,29.84,NNW,338,4.4,5.1,41,0.00,,,0.00,VWS V14.01,2013-08-14 00:40:00,
2013-08-14 03:45:00,80.2,54.3,29.84,NW,315,5.3,5.3,41,0.00,,,0.00,VWS V14.01,2013-08-14 00:45:00,
2013-08-14 03:50:00,80.1,54.3,29.84,NNW,338,6.0,6.2,41,0.00,,,0.00,VWS V14.01,2013-08-14 00:50:00,
2013-08-14 03:55:00,80.1,54.3,29.84,NW,315,2.6,8.2,41,0.00,,,0.00,VWS V14.01,2013-08-14 00:55:00,
2013-08-14 04:00:00,79.9,54.1,29.84,NNW,338,5.8,5.8,41,0.00,,,0.00,VWS V14.01,2013-08-14 01:00:00,
2013-08-14 04:05:00,80.1,54.3,29.84,NNW,338,9.6,9.6,41,0.00,,,0.00,VWS V14.01,2013-08-14 01:05:00,
2013-08-14 04:10:00,80.2,54.3,29.84,NNW,338,5.5,5.5,41,0.00,,,0.00,VWS V14.01,2013-08-14 01:10:00,
2013-08-14 04:16:00,80.2,54.3,29.84,NW,315,4.6,4.6,41,0.00,,,0.00,VWS V14.01,2013-08-14 01:16:00,
2013-08-14 04:21:00,80.2,54.3,29.84,North,0,5.1,5.1,41,0.00,,,0.00,VWS V14.01,2013-08-14 01:21:00,
2013-08-14 04:26:00,80.2,54.3,29.84,NW,315,6.0,6.0,41,0.00,,,0.00,VWS V14.01,2013-08-14 01:26:00,
2013-08-14 04:31:00,80.1,54.3,29.84,NNW,338,4.4,4.4,41,0.00,,,0.00,VWS V14.01,2013-08-14 01:31:00,
2013-08-14 04:36:00,79.9,54.1,29.83,NNW,338,5.3,5.3,41,0.00,,,0.00,VWS V14.01,2013-08-14 01:36:00,
2013-08-14 04:41:00,80.1,54.3,29.83,WNW,292,3.8,3.8,41,0.00,,,0.00,VWS V14.01,2013-08-14 01:41:00,
2013-08-14 04:46:00,80.1,54.3,29.83,NNW,338,4.4,4.4,41,0.00,,,0.00,VWS V14.01,2013-08-14 01:46:00,
2013-08-14 04:51:00,80.2,54.3,29.83,NW,315,3.8,3.8,41,0.00,,,0.00,VWS V14.01,2013-08-14 01:51:00,
2013-08-14 04:56:00,80.2,53.7,29.83,NW,315,4.0,4.0,40,0.00,,,0.00,VWS V14.01,2013-08-14 01:56:00,
2013-08-14 05:01:00,80.6,53.3,29.83,NW,315,4.0,4.6,39,0.00,,,0.00,VWS V14.01,2013-08-14 02:01:00,
2013-08-14 05:06:00,80.8,53.5,29.83,NW,315,0.0,0.0,39,0.00,,,0.00,VWS V14.01,2013-08-14 02:06:00,
2013-08-14 05:11:00,81.1,53.1,29.83,NNW,338,4.2,4.2,38,0.00,,,0.00,VWS V14.01,2013-08-14 02:11:00,
2013-08-14 05:16:00,81.1,53.8,29.83,NW,315,6.2,6.2,39,0.00,,,0.00,VWS V14.01,2013-08-14 02:16:00,
2013-08-14 05:21:00,80.8,53.5,29.83,WNW,292,3.5,3.5,39,0.00,,,0.00,VWS V14.01,2013-08-14 02:21:00,
2013-08-14 05:26:00,80.6,53.3,29.83,NW,315,5.1,5.1,39,0.00,,,0.00,VWS V14.01,2013-08-14 02:26:00,
2013-08-14 05:31:00,80.8,53.5,29.83,NW,315,3.1,3.1,39,0.00,,,0.00,VWS V14.01,2013-08-14 02:31:00,
2013-08-14 05:36:00,80.6,53.3,29.83,NNW,338,5.3,5.3,39,0.00,,,0.00,VWS V14.01,2013-08-14 02:36:00,
2013-08-14 05:41:00,80.6,54.0,29.83,North,0,5.1,6.2,40,0.00,,,0.00,VWS V14.01,2013-08-14 02:41:00,
2013-08-14 05:46:00,80.6,54.0,29.83,NNW,338,3.8,3.8,40,0.00,,,0.00,VWS V14.01,2013-08-14 02:46:00,
2013-08-14 05:51:00,80.6,54.0,29.83,WNW,292,6.4,6.4,40,0.00,,,0.00,VWS V14.01,2013-08-14 02:51:00,
2013-08-14 05:56:00,80.6,54.0,29.83,NW,315,4.2,6.0,40,0.00,,,0.00,VWS V14.01,2013-08-14 02:56:00,
2013-08-14 06:02:00,80.6,54.0,29.83,NNW,338,4.2,4.2,40,0.00,,,0.00,VWS V14.01,2013-08-14 03:02:00,
2013-08-14 06:07:00,80.6,54.0,29.83,NW,315,4.2,4.2,40,0.00,,,0.00,VWS V14.01,2013-08-14 03:07:00,
2013-08-14 06:12:00,80.2,53.7,29.83,NNW,338,4.0,4.0,40,0.00,,,0.00,VWS V14.01,2013-08-14 03:12:00,
2013-08-14 06:17:00,80.2,53.7,29.83,WNW,292,5.5,5.5,40,0.00,,,0.00,VWS V14.01,2013-08-14 03:17:00,
2013-08-14 06:22:00,80.2,53.7,29.83,NW,315,2.2,2.2,40,0.00,,,0.00,VWS V14.01,2013-08-14 03:22:00,
2013-08-14 06:27:00,79.9,54.1,29.83,NW,315,0.6,0.6,41,0.00,,,0.00,VWS V14.01,2013-08-14 03:27:00,
2013-08-14 06:32:00,79.9,54.1,29.83,NW,315,3.8,3.8,41,0.00,,,0.00,VWS V14.01,2013-08-14 03:32:00,
2013-08-14 06:37:00,79.9,54.1,29.84,NNW,338,3.3,3.3,41,0.00,,,0.00,VWS V14.01,2013-08-14 03:37:00,
2013-08-14 06:42:00,79.7,53.9,29.83,NNW,338,5.3,5.3,41,0.00,,,0.00,VWS V14.01,2013-08-14 03:42:00,
2013-08-14 06:47:00,79.9,53.4,29.83,NW,315,5.5,5.5,40,0.00,,,0.00,VWS V14.01,2013-08-14 03:47:00,
2013-08-14 06:52:00,79.9,53.4,29.84,NNW,338,2.2,2.2,40,0.00,,,0.00,VWS V14.01,2013-08-14 03:52:00,
2013-08-14 06:57:00,79.9,53.4,29.84,NW,315,5.3,5.3,40,0.00,,,0.00,VWS V14.01,2013-08-14 03:57:00,
2013-08-14 07:01:00,79.9,53.4,29.84,WNW,292,0.4,0.4,40,0.00,,,0.00,VWS V14.01,2013-08-14 04:01:00,
2013-08-14 07:02:00,79.7,53.2,29.84,WNW,292,3.3,3.3,40,0.00,,,0.00,VWS V14.01,2013-08-14 04:02:00,
2013-08-14 07:04:00,79.7,53.2,29.84,NW,315,4.4,4.4,40,0.00,,,0.00,VWS V14.01,2013-08-14 04:04:00,
2013-08-14 07:05:00,79.7,53.2,29.84,NW,315,4.4,4.4,40,0.00,,,0.00,VWS V14.01,2013-08-14 04:05:00,
2013-08-14 07:10:00,79.9,53.4,29.84,WNW,292,3.1,3.1,40,0.00,,,0.00,VWS V14.01,2013-08-14 04:10:00,
2013-08-14 07:15:00,80.1,53.6,29.84,WNW,292,3.3,3.3,40,0.00,,,0.00,VWS V14.01,2013-08-14 04:15:00,
2013-08-14 07:20:00,80.1,52.9,29.84,NW,315,0.0,0.0,39,0.00,,,0.00,VWS V14.01,2013-08-14 04:20:00,
2013-08-14 07:25:00,80.2,53.0,29.84,NW,315,3.8,3.8,39,0.00,,,0.00,VWS V14.01,2013-08-14 04:25:00,
2013-08-14 07:30:00,80.6,53.3,29.84,WNW,292,2.0,2.0,39,0.00,,,0.00,VWS V14.01,2013-08-14 04:30:00,
2013-08-14 07:36:00,80.8,52.1,29.84,West,270,4.2,4.2,37,0.00,,,0.00,VWS V14.01,2013-08-14 04:36:00,
2013-08-14 07:41:00,80.8,52.8,29.84,WNW,292,1.5,1.5,38,0.00,,,0.00,VWS V14.01,2013-08-14 04:41:00,
2013-08-14 07:46:00,81.1,52.4,29.84,WNW,292,1.7,1.7,37,0.00,,,0.00,VWS V14.01,2013-08-14 04:46:00,
2013-08-14 07:51:00,81.3,52.5,29.84,WNW,292,0.6,0.6,37,0.00,,,0.00,VWS V14.01,2013-08-14 04:51:00,
2013-08-14 07:56:00,81.5,52.7,29.84,North,0,1.3,1.3,37,0.00,,,0.00,VWS V14.01,2013-08-14 04:56:00,
2013-08-14 08:01:00,81.7,52.9,29.83,West,270,1.7,1.7,37,0.00,,,0.00,VWS V14.01,2013-08-14 05:01:00,
2013-08-14 08:06:00,82.0,52.4,29.84,NNW,338,2.6,2.6,36,0.00,,,0.00,VWS V14.01,2013-08-14 05:06:00,
2013-08-14 08:11:00,82.0,52.4,29.83,West,270,0.0,1.7,36,0.00,,,0.00,VWS V14.01,2013-08-14 05:11:00,
2013-08-14 08:16:00,82.4,52.8,29.84,WNW,292,0.0,0.0,36,0.00,,,0.00,VWS V14.01,2013-08-14 05:16:00,
2013-08-14 08:21:00,82.4,52.8,29.84,NNW,338,1.7,1.7,36,0.00,,,0.00,VWS V14.01,2013-08-14 05:21:00,
2013-08-14 08:26:00,82.9,52.4,29.84,WNW,292,0.0,0.0,35,0.00,,,0.00,VWS V14.01,2013-08-14 05:26:00,
2013-08-14 08:31:00,82.9,52.4,29.84,WNW,292,3.1,3.1,35,0.00,,,0.00,VWS V14.01,2013-08-14 05:31:00,
2013-08-14 08:36:00,83.1,52.6,29.84,NW,315,0.4,0.4,35,0.00,,,0.00,VWS V14.01,2013-08-14 05:36:00,
2013-08-14 08:41:00,83.3,52.8,29.84,SSW,202,0.0,0.0,35,0.00,,,0.00,VWS V14.01,2013-08-14 05:41:00,
2013-08-14 08:46:00,83.5,53.0,29.84,WNW,292,1.5,1.5,35,0.00,,,0.00,VWS V14.01,2013-08-14 05:46:00,
2013-08-14 08:51:00,83.5,53.0,29.84,West,270,3.1,3.1,35,0.00,,,0.00,VWS V14.01,2013-08-14 05:51:00,
2013-08-14 08:56:00,83.8,53.2,29.84,West,270,0.0,0.0,35,0.00,,,0.00,VWS V14.01,2013-08-14 05:56:00,
2013-08-14 09:01:00,84.2,53.6,29.84,WNW,292,3.8,4.0,35,0.00,,,0.00,VWS V14.01,2013-08-14 06:01:00,
2013-08-14 09:06:00,84.2,52.8,29.84,WNW,292,0.0,2.2,34,0.00,,,0.00,VWS V14.01,2013-08-14 06:06:00,
2013-08-14 09:11:00,84.6,53.1,29.84,WNW,292,0.6,0.6,34,0.00,,,0.00,VWS V14.01,2013-08-14 06:11:00,
2013-08-14 09:16:00,85.1,52.8,29.83,West,270,3.8,3.8,33,0.00,,,0.00,VWS V14.01,2013-08-14 06:16:00,
2013-08-14 09:21:00,85.1,53.6,29.83,SSW,202,2.0,4.2,34,0.00,,,0.00,VWS V14.01,2013-08-14 06:21:00,
2013-08-14 09:26:00,85.1,52.8,29.84,West,270,0.0,0.0,33,0.00,,,0.00,VWS V14.01,2013-08-14 06:26:00,
2013-08-14 09:32:00,85.5,52.3,29.84,NNW,338,4.2,4.2,32,0.00,,,0.00,VWS V14.01,2013-08-14 06:32:00,
2013-08-14 09:37:00,85.5,53.1,29.84,WSW,248,0.0,0.0,33,0.00,,,0.00,VWS V14.01,2013-08-14 06:37:00,
2013-08-14 09:42:00,86.0,53.5,29.84,WNW,292,0.0,0.0,33,0.00,,,0.00,VWS V14.01,2013-08-14 06:42:00,
2013-08-14 09:47:00,86.2,52.9,29.84,West,270,0.8,0.8,32,0.00,,,0.00,VWS V14.01,2013-08-14 06:47:00,
2013-08-14 09:52:00,86.7,51.6,29.84,West,270,0.0,0.0,30,0.00,,,0.00,VWS V14.01,2013-08-14 06:52:00,
2013-08-14 09:57:00,86.9,52.6,29.84,NNW,338,0.0,0.0,31,0.00,,,0.00,VWS V14.01,2013-08-14 06:57:00,
2013-08-14 10:02:00,87.1,51.0,29.84,North,0,5.1,5.1,29,0.00,,,0.00,VWS V14.01,2013-08-14 07:02:00,
2013-08-14 10:07:00,87.4,51.2,29.84,NNE,22,0.0,0.0,29,0.00,,,0.00,VWS V14.01,2013-08-14 07:07:00,
2013-08-14 10:12:00,88.0,51.8,29.84,WNW,292,5.3,5.3,29,0.00,,,0.00,VWS V14.01,2013-08-14 07:12:00,
2013-08-14 10:17:00,88.2,51.9,29.84,NNW,338,0.0,0.0,29,0.00,,,0.00,VWS V14.01,2013-08-14 07:17:00,
2013-08-14 10:22:00,88.5,51.2,29.83,NNE,22,4.4,4.4,28,0.00,,,0.00,VWS V14.01,2013-08-14 07:22:00,
2013-08-14 10:27:00,88.3,51.1,29.84,WNW,292,0.0,2.4,28,0.00,,,0.00,VWS V14.01,2013-08-14 07:27:00,
2013-08-14 10:32:00,88.9,50.6,29.84,NNE,22,0.0,0.0,27,0.00,,,0.00,VWS V14.01,2013-08-14 07:32:00,
2013-08-14 10:37:00,88.7,48.4,29.84,NE,45,3.5,3.5,25,0.00,,,0.00,VWS V14.01,2013-08-14 07:37:00,
2013-08-14 10:42:00,88.5,48.2,29.84,NW,315,4.6,4.6,25,0.00,,,0.00,VWS V14.01,2013-08-14 07:42:00,
2013-08-14 10:47:00,88.5,47.1,29.84,NE,45,10.7,10.7,24,0.00,,,0.00,VWS V14.01,2013-08-14 07:47:00,
2013-08-14 10:52:00,88.5,48.2,29.84,NE,45,0.0,4.4,25,0.00,,,0.00,VWS V14.01,2013-08-14 07:52:00,
2013-08-14 10:57:00,89.1,47.6,29.84,NE,45,4.9,4.9,24,0.00,,,0.00,VWS V14.01,2013-08-14 07:57:00,
2013-08-14 11:03:00,89.2,48.8,29.84,North,0,4.2,4.2,25,0.00,,,0.00,VWS V14.01,2013-08-14 08:03:00,
2013-08-14 11:08:00,89.4,49.0,29.84,NW,315,3.5,3.5,25,0.00,,,0.00,VWS V14.01,2013-08-14 08:08:00,
2013-08-14 11:13:00,89.2,48.8,29.84,NNW,338,0.4,0.4,25,0.00,,,0.00,VWS V14.01,2013-08-14 08:13:00,
2013-08-14 11:18:00,89.6,49.1,29.84,NE,45,2.0,2.0,25,0.00,,,0.00,VWS V14.01,2013-08-14 08:18:00,
2013-08-14 11:23:00,89.8,45.9,29.84,North,0,7.6,9.1,22,0.00,,,0.00,VWS V14.01,2013-08-14 08:23:00,
2013-08-14 11:28:00,89.4,47.9,29.84,North,0,2.9,2.9,24,0.00,,,0.00,VWS V14.01,2013-08-14 08:28:00,
2013-08-14 11:33:00,89.2,45.4,29.84,ENE,68,0.2,0.2,22,0.00,,,0.00,VWS V14.01,2013-08-14 08:33:00,
2013-08-14 11:38:00,89.4,45.6,29.84,North,0,10.2,10.2,22,0.00,,,0.00,VWS V14.01,2013-08-14 08:38:00,
2013-08-14 11:43:00,89.6,48.0,29.84,North,0,1.5,1.5,24,0.00,,,0.00,VWS V14.01,2013-08-14 08:43:00,
2013-08-14 11:48:00,89.2,47.7,29.84,ENE,68,4.0,9.6,24,0.00,,,0.00,VWS V14.01,2013-08-14 08:48:00,
2013-08-14 11:53:00,89.2,47.7,29.84,North,0,8.7,9.6,24,0.00,,,0.00,VWS V14.01,2013-08-14 08:53:00,
2013-08-14 11:58:00,89.6,49.1,29.84,ENE,68,0.6,0.6,25,0.00,,,0.00,VWS V14.01,2013-08-14 08:58:00,
2013-08-14 12:03:00,89.6,49.1,29.84,NNE,22,1.7,1.7,25,0.00,,,0.00,VWS V14.01,2013-08-14 09:03:00,
2013-08-14 12:08:00,89.4,47.9,29.84,NE,45,7.6,9.1,24,0.00,,,0.00,VWS V14.01,2013-08-14 09:08:00,
2013-08-14 12:13:00,89.6,49.1,29.84,NNE,22,4.9,4.9,25,0.00,,,0.00,VWS V14.01,2013-08-14 09:13:00,
2013-08-14 12:18:00,89.6,48.0,29.84,NNE,22,1.5,6.9,24,0.00,,,0.00,VWS V14.01,2013-08-14 09:18:00,
2013-08-14 12:23:00,90.1,49.5,29.84,NNE,22,5.3,5.3,25,0.00,,,0.00,VWS V14.01,2013-08-14 09:23:00,
2013-08-14 12:28:00,90.1,48.5,29.84,NE,45,8.9,8.9,24,0.00,,,0.00,VWS V14.01,2013-08-14 09:28:00,
2013-08-14 12:33:00,89.6,49.1,29.84,NE,45,4.0,8.0,25,0.00,,,0.00,VWS V14.01,2013-08-14 09:33:00,
2013-08-14 12:38:00,89.6,49.1,29.84,NE,45,8.5,8.5,25,0.00,,,0.00,VWS V14.01,2013-08-14 09:38:00,
2013-08-14 12:43:00,90.1,49.5,29.84,NE,45,6.7,8.0,25,0.00,,,0.00,VWS V14.01,2013-08-14 09:43:00,
2013-08-14 12:48:00,90.3,51.8,29.84,NNE,22,4.4,4.4,27,0.00,,,0.00,VWS V14.01,2013-08-14 09:48:00,
2013-08-14 12:53:00,90.5,50.9,29.84,East,90,7.6,7.6,26,0.00,,,0.00,VWS V14.01,2013-08-14 09:53:00,
2013-08-14 12:58:00,90.5,50.9,29.84,NE,45,7.8,7.8,26,0.00,,,0.00,VWS V14.01,2013-08-14 09:58:00,
2013-08-14 13:03:00,90.5,52.0,29.84,NE,45,6.9,9.3,27,0.00,,,0.00,VWS V14.01,2013-08-14 10:03:00,
2013-08-14 13:09:00,89.8,51.4,29.84,NNE,22,9.1,9.1,27,0.00,,,0.00,VWS V14.01,2013-08-14 10:09:00,
2013-08-14 13:14:00,89.8,51.4,29.84,ESE,112,0.4,0.4,27,0.00,,,0.00,VWS V14.01,2013-08-14 10:14:00,
2013-08-14 13:19:00,90.0,51.5,29.84,NE,45,5.5,5.5,27,0.00,,,0.00,VWS V14.01,2013-08-14 10:19:00,
2013-08-14 13:24:00,89.8,50.3,29.84,NE,45,9.3,9.3,26,0.00,,,0.00,VWS V14.01,2013-08-14 10:24:00,
2013-08-14 13:29:00,89.6,51.2,29.84,North,0,9.6,9.6,27,0.00,,,0.00,VWS V14.01,2013-08-14 10:29:00,
2013-08-14 13:34:00,89.8,50.3,29.84,East,90,6.2,7.1,26,0.00,,,0.00,VWS V14.01,2013-08-14 10:34:00,
2013-08-14 13:39:00,90.3,50.8,29.84,NE,45,5.3,7.8,26,0.00,,,0.00,VWS V14.01,2013-08-14 10:39:00,
2013-08-14 13:44:00,90.0,49.5,29.84,NE,45,10.0,10.0,25,0.00,,,0.00,VWS V14.01,2013-08-14 10:44:00,
2013-08-14 13:49:00,89.6,49.1,29.84,NE,45,3.5,7.8,25,0.00,,,0.00,VWS V14.01,2013-08-14 10:49:00,
2013-08-14 13:54:00,90.1,49.5,29.84,NE,45,5.3,6.7,25,0.00,,,0.00,VWS V14.01,2013-08-14 10:54:00,
2013-08-14 13:59:00,90.3,50.8,29.84,NNW,338,2.6,2.6,26,0.00,,,0.00,VWS V14.01,2013-08-14 10:59:00,
2013-08-14 14:04:00,90.1,49.5,29.84,NE,45,9.6,9.6,25,0.00,,,0.00,VWS V14.01,2013-08-14 11:04:00,
2013-08-14 14:09:00,90.3,49.7,29.84,NE,45,8.0,8.0,25,0.00,,,0.00,VWS V14.01,2013-08-14 11:09:00,
2013-08-14 14:14:00,90.5,49.9,29.84,NNW,338,8.2,8.2,25,0.00,,,0.00,VWS V14.01,2013-08-14 11:14:00,
2013-08-14 14:20:00,90.3,49.7,29.84,NNE,22,2.0,2.0,25,0.00,,,0.00,VWS V14.01,2013-08-14 11:20:00,
2013-08-14 14:25:00,90.7,50.0,29.84,NNE,22,3.5,3.5,25,0.00,,,0.00,VWS V14.01,2013-08-14 11:25:00,
2013-08-14 14:30:00,91.0,49.2,29.84,NNE,22,8.2,9.1,24,0.00,,,0.00,VWS V14.01,2013-08-14 11:30:00,
2013-08-14 14:35:00,90.7,49.0,29.84,NNE,22,8.0,10.0,24,0.00,,,0.00,VWS V14.01,2013-08-14 11:35:00,
2013-08-14 14:40:00,90.9,49.1,29.84,NNE,22,3.5,3.5,24,0.00,,,0.00,VWS V14.01,2013-08-14 11:40:00,
2013-08-14 14:45:00,90.9,46.8,29.84,NNE,22,9.6,9.6,22,0.00,,,0.00,VWS V14.01,2013-08-14 11:45:00,
2013-08-14 14:50:00,90.7,46.6,29.84,NNE,22,3.5,3.5,22,0.00,,,0.00,VWS V14.01,2013-08-14 11:50:00,
2013-08-14 14:55:00,91.0,46.9,29.84,NNE,22,8.7,8.7,22,0.00,,,0.00,VWS V14.01,2013-08-14 11:55:00,
2013-08-14 15:00:00,90.7,46.6,29.85,NE,45,3.8,7.8,22,0.00,,,0.00,VWS V14.01,2013-08-14 12:00:00,
2013-08-14 15:05:00,90.9,46.8,29.84,North,0,8.7,8.7,22,0.00,,,0.00,VWS V14.01,2013-08-14 12:05:00,
2013-08-14 15:10:00,90.9,49.1,29.84,NE,45,4.9,7.6,24,0.00,,,0.00,VWS V14.01,2013-08-14 12:10:00,
2013-08-14 15:15:00,91.0,49.2,29.84,NNE,22,6.0,6.9,24,0.00,,,0.00,VWS V14.01,2013-08-14 12:15:00,
2013-08-14 15:20:00,91.4,47.2,29.84,NNE,22,7.3,7.3,22,0.00,,,0.00,VWS V14.01,2013-08-14 12:20:00,
2013-08-14 15:25:00,91.0,49.2,29.84,North,0,0.4,5.3,24,0.00,,,0.00,VWS V14.01,2013-08-14 12:25:00,
2013-08-14 15:30:00,91.2,47.0,29.84,NNE,22,9.3,9.3,22,0.00,,,0.00,VWS V14.01,2013-08-14 12:30:00,
2013-08-14 15:35:00,90.7,49.0,29.84,NE,45,6.2,6.4,24,0.00,,,0.00,VWS V14.01,2013-08-14 12:35:00,
2013-08-14 15:40:00,91.0,49.2,29.84,NNE,22,7.3,7.3,24,0.00,,,0.00,VWS V14.01,2013-08-14 12:40:00,
2013-08-14 15:45:00,90.7,49.0,29.83,NE,45,6.9,9.6,24,0.00,,,0.00,VWS V14.01,2013-08-14 12:45:00,
2013-08-14 15:50:00,90.9,49.1,29.83,NNW,338,8.9,8.9,24,0.00,,,0.00,VWS V14.01,2013-08-14 12:50:00,
2013-08-14 15:55:00,90.7,49.0,29.83,NE,45,5.5,7.1,24,0.00,,,0.00,VWS V14.01,2013-08-14 12:55:00,
2013-08-14 16:01:00,90.5,48.8,29.83,NE,45,8.5,8.5,24,0.00,,,0.00,VWS V14.01,2013-08-14 13:01:00,
2013-08-14 16:06:00,90.9,49.1,29.83,NE,45,4.6,9.6,24,0.00,,,0.00,VWS V14.01,2013-08-14 13:06:00,
2013-08-14 16:11:00,90.3,48.6,29.83,NE,45,6.0,8.0,24,0.00,,,0.00,VWS V14.01,2013-08-14 13:11:00,
2013-08-14 16:16:00,90.3,49.7,29.83,NNE,22,7.3,7.3,25,0.00,,,0.00,VWS V14.01,2013-08-14 13:16:00,
2013-08-14 16:21:00,90.5,49.9,29.83,NE,45,6.9,6.9,25,0.00,,,0.00,VWS V14.01,2013-08-14 13:21:00,
2013-08-14 16:26:00,90.9,50.2,29.83,North,0,0.0,0.0,25,0.00,,,0.00,VWS V14.01,2013-08-14 13:26:00,
2013-08-14 16:31:00,90.5,49.9,29.83,NE,45,4.4,6.9,25,0.00,,,0.00,VWS V14.01,2013-08-14 13:31:00,
2013-08-14 16:36:00,90.5,49.9,29.83,NNE,22,6.0,6.2,25,0.00,,,0.00,VWS V14.01,2013-08-14 13:36:00,
2013-08-14 16:41:00,90.5,49.9,29.83,NE,45,3.5,4.2,25,0.00,,,0.00,VWS V14.01,2013-08-14 13:41:00,
2013-08-14 16:46:00,90.5,49.9,29.83,ENE,68,3.5,3.5,25,0.00,,,0.00,VWS V14.01,2013-08-14 13:46:00,
2013-08-14 16:51:00,90.1,50.6,29.83,NNE,22,6.4,6.4,26,0.00,,,0.00,VWS V14.01,2013-08-14 13:51:00,
2013-08-14 16:57:00,90.3,49.7,29.82,NNE,22,8.7,8.7,25,0.00,,,0.00,VWS V14.01,2013-08-14 13:57:00,
2013-08-14 17:02:00,90.0,50.5,29.82,NE,45,2.0,2.0,26,0.00,,,0.00,VWS V14.01,2013-08-14 14:02:00,
2013-08-14 17:07:00,90.1,49.5,29.82,NE,45,5.3,5.3,25,0.00,,,0.00,VWS V14.01,2013-08-14 14:07:00,
2013-08-14 17:12:00,89.8,50.3,29.82,NE,45,5.8,5.8,26,0.00,,,0.00,VWS V14.01,2013-08-14 14:12:00,
2013-08-14 17:17:00,90.0,49.5,29.82,NE,45,9.1,9.1,25,0.00,,,0.00,VWS V14.01,2013-08-14 14:17:00,
2013-08-14 17:22:00,90.0,49.5,29.82,NE,45,2.2,2.2,25,0.00,,,0.00,VWS V14.01,2013-08-14 14:22:00,
2013-08-14 17:27:00,89.8,49.3,29.82,NNE,22,4.4,4.4,25,0.00,,,0.00,VWS V14.01,2013-08-14 14:27:00,
2013-08-14 17:32:00,89.8,50.3,29.82,ENE,68,2.0,3.1,26,0.00,,,0.00,VWS V14.01,2013-08-14 14:32:00,
2013-08-14 17:37:00,89.8,49.3,29.82,NNE,22,6.4,6.4,25,0.00,,,0.00,VWS V14.01,2013-08-14 14:37:00,
2013-08-14 17:42:00,89.8,49.3,29.82,NNE,22,6.7,6.7,25,0.00,,,0.00,VWS V14.01,2013-08-14 14:42:00,
2013-08-14 17:47:00,89.6,50.2,29.82,NE,45,6.7,6.9,26,0.00,,,0.00,VWS V14.01,2013-08-14 14:47:00,
2013-08-14 17:52:00,89.2,49.8,29.82,NNW,338,6.7,6.9,26,0.00,,,0.00,VWS V14.01,2013-08-14 14:52:00,
2013-08-14 17:57:00,89.1,49.8,29.83,NE,45,3.8,5.3,26,0.00,,,0.00,VWS V14.01,2013-08-14 14:57:00,
2013-08-14 18:02:00,88.9,49.6,29.83,NE,45,4.6,4.6,26,0.00,,,0.00,VWS V14.01,2013-08-14 15:02:00,
2013-08-14 18:07:00,88.7,50.4,29.83,NE,45,3.8,6.2,27,0.00,,,0.00,VWS V14.01,2013-08-14 15:07:00,
2013-08-14 18:12:00,88.7,50.4,29.83,NE,45,2.6,2.6,27,0.00,,,0.00,VWS V14.01,2013-08-14 15:12:00,
2013-08-14 18:17:00,88.3,50.1,29.83,NE,45,4.4,7.6,27,0.00,,,0.00,VWS V14.01,2013-08-14 15:17:00,
2013-08-14 18:22:00,88.3,50.1,29.83,NE,45,0.0,0.0,27,0.00,,,0.00,VWS V14.01,2013-08-14 15:22:00,
2013-08-14 18:28:00,88.3,50.1,29.83,North,0,3.3,3.3,27,0.00,,,0.00,VWS V14.01,2013-08-14 15:28:00,
2013-08-14 18:33:00,88.3,50.1,29.83,NNE,22,4.0,4.0,27,0.00,,,0.00,VWS V14.01,2013-08-14 15:33:00,
2013-08-14 18:38:00,88.0,49.8,29.83,NNE,22,4.9,4.9,27,0.00,,,0.00,VWS V14.01,2013-08-14 15:38:00,
2013-08-14 18:43:00,87.8,49.7,29.83,NE,45,6.7,6.9,27,0.00,,,0.00,VWS V14.01,2013-08-14 15:43:00,
2013-08-14 18:48:00,87.8,49.7,29.82,NE,45,0.0,0.0,27,0.00,,,0.00,VWS V14.01,2013-08-14 15:48:00,
2013-08-14 18:54:00,87.8,49.7,29.82,NE,45,5.5,5.5,27,0.00,,,0.00,VWS V14.01,2013-08-14 15:54:00,
2013-08-14 18:59:00,87.4,49.3,29.83,NE,45,5.3,5.3,27,0.00,,,0.00,VWS V14.01,2013-08-14 15:59:00,
2013-08-14 19:04:00,87.4,50.3,29.83,NNE,22,0.8,0.8,28,0.00,,,0.00,VWS V14.01,2013-08-14 16:04:00,
2013-08-14 19:09:00,87.3,50.2,29.83,NNE,22,2.0,2.0,28,0.00,,,0.00,VWS V14.01,2013-08-14 16:09:00,
2013-08-14 19:14:00,87.1,50.0,29.83,NNE,22,6.2,6.2,28,0.00,,,0.00,VWS V14.01,2013-08-14 16:14:00,
2013-08-14 19:19:00,86.9,49.9,29.83,NNE,22,2.2,5.3,28,0.00,,,0.00,VWS V14.01,2013-08-14 16:19:00,
2013-08-14 19:25:00,86.9,50.8,29.83,NNE,22,4.2,4.2,29,0.00,,,0.00,VWS V14.01,2013-08-14 16:25:00,
2013-08-14 19:30:00,86.5,50.5,29.83,North,0,5.3,5.3,29,0.00,,,0.00,VWS V14.01,2013-08-14 16:30:00,
2013-08-14 19:35:00,86.2,50.2,29.83,NNE,22,2.9,2.9,29,0.00,,,0.00,VWS V14.01,2013-08-14 16:35:00,
2013-08-14 19:40:00,86.2,51.1,29.83,NNE,22,0.2,0.2,30,0.00,,,0.00,VWS V14.01,2013-08-14 16:40:00,
2013-08-14 19:45:00,86.0,51.0,29.83,North,0,0.4,0.4,30,0.00,,,0.00,VWS V14.01,2013-08-14 16:45:00,
2013-08-14 19:51:00,85.3,52.1,29.83,NNE,22,4.4,4.4,32,0.00,,,0.00,VWS V14.01,2013-08-14 16:51:00,
2013-08-14 19:56:00,85.1,51.9,29.83,NE,45,3.1,3.1,32,0.00,,,0.00,VWS V14.01,2013-08-14 16:56:00,
2013-08-14 20:01:00,84.6,52.3,29.83,NNE,22,0.0,0.0,33,0.00,,,0.00,VWS V14.01,2013-08-14 17:01:00,
2013-08-14 20:06:00,84.4,52.2,29.83,NNE,22,0.0,0.0,33,0.00,,,0.00,VWS V14.01,2013-08-14 17:06:00,
2013-08-14 20:11:00,84.2,52.0,29.83,NNE,22,0.0,0.0,33,0.00,,,0.00,VWS V14.01,2013-08-14 17:11:00,
2013-08-14 20:16:00,83.8,51.6,29.84,NNW,338,0.0,0.0,33,0.00,,,0.00,VWS V14.01,2013-08-14 17:16:00,
2013-08-14 20:21:00,83.5,52.2,29.84,NNW,338,0.0,0.0,34,0.00,,,0.00,VWS V14.01,2013-08-14 17:21:00,
2013-08-14 20:26:00,83.5,52.2,29.84,NNW,338,4.0,4.0,34,0.00,,,0.00,VWS V14.01,2013-08-14 17:26:00,
2013-08-14 20:32:00,83.3,52.0,29.84,NW,315,3.1,3.1,34,0.00,,,0.00,VWS V14.01,2013-08-14 17:32:00,
2013-08-14 20:37:00,83.3,52.0,29.84,NW,315,0.0,0.0,34,0.00,,,0.00,VWS V14.01,2013-08-14 17:37:00,
2013-08-14 20:42:00,83.1,51.8,29.84,NNW,338,0.0,0.0,34,0.00,,,0.00,VWS V14.01,2013-08-14 17:42:00,
2013-08-14 20:48:00,83.3,52.8,29.84,NNW,338,0.0,0.0,35,0.00,,,0.00,VWS V14.01,2013-08-14 17:48:00,
2013-08-14 20:53:00,82.9,52.4,29.84,NNW,338,0.0,0.0,35,0.00,,,0.00,VWS V14.01,2013-08-14 17:53:00,
2013-08-14 20:58:00,82.9,53.2,29.84,NNW,338,0.0,0.0,36,0.00,,,0.00,VWS V14.01,2013-08-14 17:58:00,
2013-08-14 21:04:00,82.8,53.1,29.84,NNW,338,0.0,0.0,36,0.00,,,0.00,VWS V14.01,2013-08-14 18:04:00,
2013-08-14 21:09:00,82.6,52.9,29.84,NNW,338,1.3,1.3,36,0.00,,,0.00,VWS V14.01,2013-08-14 18:09:00,
2013-08-14 21:14:00,82.6,52.9,29.84,NNW,338,4.0,4.0,36,0.00,,,0.00,VWS V14.01,2013-08-14 18:14:00,
2013-08-14 21:19:00,82.4,52.8,29.84,NNW,338,0.0,0.0,36,0.00,,,0.00,VWS V14.01,2013-08-14 18:19:00,
2013-08-14 21:24:00,82.4,52.8,29.84,NW,315,3.1,3.1,36,0.00,,,0.00,VWS V14.01,2013-08-14 18:24:00,
2013-08-14 21:30:00,82.0,52.4,29.84,NW,315,0.0,0.0,36,0.00,,,0.00,VWS V14.01,2013-08-14 18:30:00,
2013-08-14 21:35:00,81.7,52.1,29.84,NW,315,0.0,0.0,36,0.00,,,0.00,VWS V14.01,2013-08-14 18:35:00,
2013-08-14 21:40:00,81.7,52.1,29.84,NW,315,0.0,0.0,36,0.00,,,0.00,VWS V14.01,2013-08-14 18:40:00,
2013-08-14 21:45:00,81.5,52.0,29.84,NW,315,0.0,0.0,36,0.00,,,0.00,VWS V14.01,2013-08-14 18:45:00,
2013-08-14 21:51:00,81.3,51.8,29.84,NW,315,3.5,3.5,36,0.00,,,0.00,VWS V14.01,2013-08-14 18:51:00,
2013-08-14 21:56:00,81.3,51.8,29.84,NW,315,0.0,0.0,36,0.00,,,0.00,VWS V14.01,2013-08-14 18:56:00,
2013-08-14 22:03:00,81.3,51.8,29.84,WNW,292,0.0,0.0,36,0.00,,,0.00,VWS V14.01,2013-08-14 19:03:00,
2013-08-14 22:08:00,81.1,51.6,29.84,WNW,292,5.8,5.8,36,0.00,,,0.00,VWS V14.01,2013-08-14 19:08:00,
2013-08-14 22:13:00,81.1,51.6,29.84,WNW,292,0.0,0.0,36,0.00,,,0.00,VWS V14.01,2013-08-14 19:13:00,
2013-08-14 22:18:00,81.1,51.6,29.84,WNW,292,0.0,2.2,36,0.00,,,0.00,VWS V14.01,2013-08-14 19:18:00,
2013-08-14 22:23:00,81.1,51.6,29.84,WNW,292,0.0,0.0,36,0.00,,,0.00,VWS V14.01,2013-08-14 19:23:00,
2013-08-14 22:29:00,81.0,51.5,29.84,WNW,292,0.0,0.0,36,0.00,,,0.00,VWS V14.01,2013-08-14 19:29:00,
2013-08-14 22:34:00,80.8,51.3,29.84,WNW,292,2.4,2.4,36,0.00,,,0.00,VWS V14.01,2013-08-14 19:34:00,
2013-08-14 22:39:00,80.8,51.3,29.84,WNW,292,0.0,0.0,36,0.00,,,0.00,VWS V14.01,2013-08-14 19:39:00,
2013-08-14 22:45:00,80.8,51.3,29.84,WNW,292,0.0,0.0,36,0.00,,,0.00,VWS V14.01,2013-08-14 19:45:00,
2013-08-14 22:51:00,80.8,51.3,29.84,WNW,292,1.3,1.3,36,0.00,,,0.00,VWS V14.01,2013-08-14 19:51:00,
2013-08-14 22:56:00,80.8,51.3,29.84,WNW,292,0.0,0.0,36,0.00,,,0.00,VWS V14.01,2013-08-14 19:56:00,
2013-08-14 23:01:00,80.6,51.2,29.84,WNW,292,0.0,5.3,36,0.00,,,0.00,VWS V14.01,2013-08-14 20:01:00,
2013-08-14 23:06:00,80.8,51.3,29.83,NW,315,0.4,0.4,36,0.00,,,0.00,VWS V14.01,2013-08-14 20:06:00,
2013-08-14 23:11:00,80.8,51.3,29.84,NW,315,0.0,0.0,36,0.00,,,0.00,VWS V14.01,2013-08-14 20:11:00,
2013-08-14 23:16:00,81.0,51.5,29.84,WNW,292,2.2,2.2,36,0.00,,,0.00,VWS V14.01,2013-08-14 20:16:00,
2013-08-14 23:21:00,81.1,52.4,29.84,WNW,292,0.0,0.0,37,0.00,,,0.00,VWS V14.01,2013-08-14 20:21:00,
2013-08-14 23:26:00,81.5,52.0,29.84,WNW,292,0.0,0.0,36,0.00,,,0.00,VWS V14.01,2013-08-14 20:26:00,
2013-08-14 23:32:00,81.5,52.0,29.84,WNW,292,4.4,4.4,36,0.00,,,0.00,VWS V14.01,2013-08-14 20:32:00,
2013-08-14 23:37:00,81.5,52.0,29.84,NW,315,5.3,5.3,36,0.00,,,0.00,VWS V14.01,2013-08-14 20:37:00,
2013-08-14 23:42:00,81.5,52.0,29.84,NW,315,0.0,0.0,36,0.00,,,0.00,VWS V14.01,2013-08-14 20:42:00,
2013-08-14 23:48:00,81.3,51.8,29.84,NW,315,0.0,0.0,36,0.00,,,0.00,VWS V14.01,2013-08-14 20:48:00,
2013-08-14 23:53:00,81.1,52.4,29.84,WNW,292,1.7,1.7,37,0.00,,,0.00,VWS V14.01,2013-08-14 20:53:00,
2013-08-14 23:58:00,81.1,52.4,29.83,West,270,2.2,2.2,37,0.00,,,0.00,VWS V14.01,2013-08-14 20:58:00,